Time;durP1;ratioP1;P1;durP2;ratioP2;P2;SDS_P1;SDS_P2;PMS_P1;PMS_P2;Temp;Humidity;BMP_temperature;BMP_pressure;BME280_temperature;BME280_humidity;BME280_pressure;Samples;Min_cycle;Max_cycle;Signal;HPM_P1;HPM_P2
2022/03/28 00:02:24;;;;;;;1.63;1.30;;;12.30;50.20;;;;;;5063975;28;20205;-57
2022/03/28 00:04:51;;;;;;;2.80;1.47;;;12.30;50.20;;;;;;5063077;28;20201;-58
2022/03/28 00:07:18;;;;;;;1.30;1.13;;;12.30;50.20;;;;;;5065408;28;20202;-57
2022/03/28 00:09:45;;;;;;;1.23;1.10;;;12.30;50.40;;;;;;5068400;28;20603;-55
2022/03/28 00:12:12;;;;;;;1.67;1.27;;;12.30;50.60;;;;;;5062768;28;20192;-55
2022/03/28 00:14:39;;;;;;;2.37;1.30;;;12.30;50.80;;;;;;5063271;28;20281;-57
2022/03/28 00:17:07;;;;;;;3.17;1.10;;;12.30;50.90;;;;;;5066249;28;20223;-57
2022/03/28 00:19:35;;;;;;;2.23;1.40;;;12.30;51.00;;;;;;5070390;28;20205;-56
2022/03/28 00:22:03;;;;;;;1.20;1.10;;;12.30;51.10;;;;;;5054468;28;20285;-59
2022/03/28 00:24:30;;;;;;;1.00;0.90;;;12.30;51.30;;;;;;5067854;28;20284;-58
2022/03/28 00:26:57;;;;;;;1.00;0.93;;;12.30;51.30;;;;;;5063323;28;20221;-59
2022/03/28 00:29:24;;;;;;;2.87;1.40;;;12.30;51.30;;;;;;5068254;28;20279;-58
2022/03/28 00:31:53;;;;;;;2.87;1.40;;;12.30;51.50;;;;;;5060042;28;20205;-58
2022/03/28 00:34:21;;;;;;;2.20;1.50;;;12.30;52.00;;;;;;5058137;28;20533;-58
2022/03/28 00:36:51;;;;;;;3.40;1.53;;;12.20;52.20;;;;;;5053847;28;20248;-59
2022/03/28 00:39:19;;;;;;;2.23;1.40;;;12.20;52.40;;;;;;5056446;28;20581;-58
2022/03/28 00:41:47;;;;;;;1.97;1.20;;;12.10;52.60;;;;;;5060329;28;20200;-61
2022/03/28 00:44:14;;;;;;;3.77;1.20;;;12.10;52.80;;;;;;5058472;28;20270;-59
2022/03/28 00:46:42;;;;;;;3.10;1.53;;;12.10;53.00;;;;;;5057466;28;20542;-60
2022/03/28 00:49:09;;;;;;;3.90;1.40;;;12.10;53.20;;;;;;5064625;28;20265;-56
2022/03/28 00:51:37;;;;;;;2.13;1.60;;;12.00;53.60;;;;;;5055584;28;20194;-57
2022/03/28 00:54:07;;;;;;;2.10;1.60;;;12.00;54.00;;;;;;5054423;28;20201;-59
2022/03/28 00:56:35;;;;;;;4.17;1.63;;;12.00;54.10;;;;;;5069588;28;20745;-58
2022/03/28 00:59:02;;;;;;;2.03;1.40;;;11.90;54.30;;;;;;5069794;28;20226;-57
2022/03/28 01:01:30;;;;;;;3.73;1.60;;;11.90;54.80;;;;;;5056978;28;20209;-58
2022/03/28 01:03:57;;;;;;;2.03;1.17;;;11.90;55.00;;;;;;5069018;28;20204;-57
2022/03/28 01:06:24;;;;;;;1.73;1.13;;;11.90;55.10;;;;;;5067465;28;20211;-58
2022/03/28 01:08:53;;;;;;;2.20;1.50;;;11.80;55.30;;;;;;5067282;28;20193;-57
2022/03/28 01:11:22;;;;;;;1.43;1.20;;;11.80;55.50;;;;;;5069289;28;20204;-59
2022/03/28 01:13:49;;;;;;;2.17;1.60;;;11.80;55.60;;;;;;5068167;28;20293;-57
2022/03/28 01:16:16;;;;;;;1.23;1.13;;;11.80;56.20;;;;;;5061795;28;20194;-59
2022/03/28 01:18:47;;;;;;;2.93;1.30;;;11.80;56.50;;;;;;5066418;28;20661;-59
2022/03/28 01:21:16;;;;;;;1.23;1.03;;;11.80;56.70;;;;;;5060295;28;20189;-59
2022/03/28 01:23:43;;;;;;;1.53;1.00;;;11.80;56.70;;;;;;5068969;28;20197;-58
2022/03/28 01:26:12;;;;;;;1.07;0.97;;;11.80;56.80;;;;;;5062913;28;20209;-57
2022/03/28 01:28:39;;;;;;;1.10;1.10;;;11.80;57.00;;;;;;5064297;28;20247;-58
2022/03/28 01:31:07;;;;;;;1.30;1.20;;;11.80;57.50;;;;;;5072910;28;20219;-59
2022/03/28 01:33:35;;;;;;;1.20;1.10;;;11.80;57.70;;;;;;5061507;28;20287;-58
2022/03/28 01:36:02;;;;;;;1.77;1.13;;;11.80;57.90;;;;;;5072880;28;20193;-58
2022/03/28 01:38:31;;;;;;;1.53;1.20;;;11.80;58.40;;;;;;5066644;28;20197;-57
2022/03/28 01:40:58;;;;;;;1.07;1.00;;;11.80;58.60;;;;;;5073442;28;20206;-58
2022/03/28 01:43:25;;;;;;;0.80;0.80;;;11.80;58.60;;;;;;5066471;28;20198;-59
2022/03/28 01:45:52;;;;;;;3.10;1.30;;;11.80;58.70;;;;;;5063699;28;20247;-58
2022/03/28 01:48:20;;;;;;;2.90;1.60;;;11.80;58.80;;;;;;5065549;28;20194;-58
2022/03/28 01:50:47;;;;;;;1.03;0.90;;;11.80;59.30;;;;;;5061836;28;20607;-58
2022/03/28 01:53:14;;;;;;;1.30;1.20;;;11.80;59.50;;;;;;5065386;28;20202;-59
2022/03/28 01:55:42;;;;;;;0.90;0.90;;;11.80;59.80;;;;;;5071215;28;20204;-57
2022/03/28 01:58:09;;;;;;;1.43;1.10;;;11.80;59.90;;;;;;5072715;28;20211;-57
2022/03/28 02:00:36;;;;;;;1.20;1.10;;;11.80;60.20;;;;;;5072152;28;20635;-59
2022/03/28 02:03:04;;;;;;;2.40;1.50;;;11.70;61.30;;;;;;5070279;28;20204;-57
2022/03/28 02:05:31;;;;;;;1.47;1.20;;;11.70;61.00;;;;;;5070713;28;20254;-60
2022/03/28 02:07:59;;;;;;;2.93;1.43;;;11.70;61.40;;;;;;5072255;28;20199;-60
2022/03/28 02:10:27;;;;;;;1.30;1.20;;;11.60;61.90;;;;;;5071559;28;21392;-59
2022/03/28 02:12:56;;;;;;;2.47;1.10;;;11.60;62.20;;;;;;5059197;28;20251;-60
2022/03/28 02:15:23;;;;;;;1.13;1.10;;;11.60;62.40;;;;;;5065817;28;20217;-59
2022/03/28 02:17:51;;;;;;;1.87;1.33;;;11.60;62.60;;;;;;5060364;28;20820;-60
2022/03/28 02:20:19;;;;;;;1.40;1.30;;;11.60;63.50;;;;;;5064854;28;20284;-58
2022/03/28 02:22:47;;;;;;;1.40;1.30;;;11.50;63.80;;;;;;5067899;28;20238;-59
2022/03/28 02:25:16;;;;;;;2.07;1.50;;;11.50;64.50;;;;;;5063106;28;20196;-59
2022/03/28 02:27:44;;;;;;;1.87;1.40;;;11.50;65.00;;;;;;5068076;28;20649;-58
2022/03/28 02:30:14;;;;;;;2.00;1.30;;;11.50;65.60;;;;;;5062935;28;20257;-60
2022/03/28 02:32:42;;;;;;;1.43;1.00;;;11.40;66.00;;;;;;5065666;28;20655;-60
2022/03/28 02:35:10;;;;;;;2.17;1.33;;;11.40;66.10;;;;;;5060667;28;20194;-59
2022/03/28 02:37:37;;;;;;;1.87;1.20;;;11.40;66.60;;;;;;5064263;28;20725;-58
2022/03/28 02:40:05;;;;;;;2.23;1.20;;;11.40;66.80;;;;;;5060995;28;20201;-58
2022/03/28 02:42:33;;;;;;;1.83;1.30;;;11.40;67.10;;;;;;5066196;28;20206;-58
2022/03/28 02:45:00;;;;;;;2.17;1.30;;;11.40;67.70;;;;;;5062222;28;20286;-60
2022/03/28 02:47:28;;;;;;;5.63;1.40;;;11.30;68.10;;;;;;5058665;28;20226;-60
2022/03/28 02:49:55;;;;;;;2.73;1.10;;;11.30;68.80;;;;;;5065033;28;20192;-57
2022/03/28 02:52:23;;;;;;;2.73;1.33;;;11.30;69.40;;;;;;5058628;28;20211;-57
2022/03/28 02:54:50;;;;;;;2.87;1.30;;;11.20;69.70;;;;;;5063504;28;20228;-60
2022/03/28 02:57:18;;;;;;;2.30;1.07;;;11.20;70.40;;;;;;5071776;28;20194;-58
2022/03/28 02:59:45;;;;;;;2.97;1.33;;;11.20;70.30;;;;;;5066327;28;20202;-58
2022/03/28 03:02:12;;;;;;;2.30;1.00;;;11.20;70.70;;;;;;5065647;28;20201;-59
2022/03/28 03:04:40;;;;;;;2.27;1.37;;;11.20;70.70;;;;;;5068909;28;20664;-59
2022/03/28 03:07:08;;;;;;;3.47;1.30;;;11.20;71.20;;;;;;5066339;28;20685;-59
2022/03/28 03:09:36;;;;;;;2.90;1.27;;;11.10;71.40;;;;;;5058193;28;20195;-59
2022/03/28 03:12:03;;;;;;;2.40;1.37;;;11.10;72.30;;;;;;5066400;28;20636;-59
2022/03/28 03:14:30;;;;;;;1.67;1.27;;;11.10;72.50;;;;;;5069950;28;20247;-59
2022/03/28 03:16:57;;;;;;;1.37;1.13;;;11.10;73.00;;;;;;5062516;28;20513;-59
2022/03/28 03:19:25;;;;;;;1.17;1.00;;;11.10;73.10;;;;;;5064813;28;20201;-56
2022/03/28 03:21:53;;;;;;;2.87;1.20;;;11.00;73.10;;;;;;5063675;28;20203;-59
2022/03/28 03:24:20;;;;;;;4.20;1.20;;;11.00;73.30;;;;;;5069883;28;20254;-60
2022/03/28 03:26:47;;;;;;;2.50;1.40;;;11.00;73.80;;;;;;5062788;28;20210;-59
2022/03/28 03:29:14;;;;;;;2.33;1.20;;;11.00;74.20;;;;;;5064290;28;20594;-59
2022/03/28 03:31:41;;;;;;;1.97;1.17;;;11.00;74.30;;;;;;5066265;28;20201;-57
2022/03/28 03:34:09;;;;;;;1.50;1.10;;;11.00;74.80;;;;;;5058203;28;20194;-58
2022/03/28 03:36:36;;;;;;;1.33;1.10;;;11.00;75.10;;;;;;5059388;28;20274;-59
2022/03/28 03:39:05;;;;;;;2.63;1.10;;;10.90;75.20;;;;;;5060357;28;20212;-59
2022/03/28 03:41:32;;;;;;;5.53;1.43;;;10.90;75.60;;;;;;5069329;28;20197;-59
2022/03/28 03:43:59;;;;;;;2.90;1.60;;;11.00;75.80;;;;;;5063084;28;20659;-59
2022/03/28 03:46:27;;;;;;;5.30;1.30;;;10.90;76.20;;;;;;5066063;28;20216;-60
2022/03/28 03:48:54;;;;;;;2.90;1.30;;;10.90;76.30;;;;;;5061007;28;20254;-59
2022/03/28 03:51:21;;;;;;;1.97;1.10;;;10.90;76.30;;;;;;5063985;28;20215;-60
2022/03/28 03:53:48;;;;;;;1.97;1.50;;;10.90;76.50;;;;;;5070173;28;20250;-58
2022/03/28 03:56:17;;;;;;;2.40;1.57;;;10.90;76.50;;;;;;5057278;28;20200;-58
2022/03/28 03:58:44;;;;;;;2.43;1.83;;;10.80;76.70;;;;;;5070268;28;20192;-57
2022/03/28 04:01:11;;;;;;;2.40;1.50;;;10.80;76.90;;;;;;5069538;28;20201;-59
2022/03/28 04:03:38;;;;;;;1.40;1.30;;;10.80;77.00;;;;;;5069044;28;20295;-59
2022/03/28 04:06:10;;;;;;;3.97;1.17;;;10.80;77.00;;;;;;5069204;28;20286;-60
2022/03/28 04:08:37;;;;;;;3.73;1.50;;;10.70;77.30;;;;;;5069307;28;20288;-58
2022/03/28 04:11:05;;;;;;;3.87;1.57;;;10.70;77.80;;;;;;5066895;28;20240;-60
2022/03/28 04:13:34;;;;;;;2.07;1.30;;;10.70;78.20;;;;;;5069426;28;20242;-58
2022/03/28 04:16:01;;;;;;;3.70;1.73;;;10.60;78.60;;;;;;5069777;28;20233;-58
2022/03/28 04:18:28;;;;;;;1.90;1.33;;;10.60;79.40;;;;;;5068642;28;20202;-59
2022/03/28 04:20:56;;;;;;;4.50;1.73;;;10.50;79.60;;;;;;5069923;28;20204;-59
2022/03/28 04:23:24;;;;;;;5.47;1.90;;;10.50;79.90;;;;;;5069546;28;20191;-60
2022/03/28 04:25:52;;;;;;;4.03;1.63;;;10.50;80.60;;;;;;5066004;28;20211;-59
2022/03/28 04:28:19;;;;;;;3.57;1.70;;;10.40;80.80;;;;;;5066163;28;20200;-59
2022/03/28 04:30:50;;;;;;;3.43;1.63;;;10.40;81.00;;;;;;5069541;28;20196;-59
2022/03/28 04:33:17;;;;;;;2.20;1.40;;;10.40;81.50;;;;;;5065241;28;20290;-58
2022/03/28 04:35:45;;;;;;;2.43;1.30;;;10.40;81.90;;;;;;5067074;28;21135;-59
2022/03/28 04:38:12;;;;;;;3.33;1.60;;;10.30;82.10;;;;;;5064921;28;20202;-58
2022/03/28 04:40:39;;;;;;;4.13;1.73;;;10.30;82.50;;;;;;5063531;28;20204;-58
2022/03/28 04:43:07;;;;;;;3.80;1.83;;;10.30;83.30;;;;;;5059942;28;20209;-59
2022/03/28 04:45:34;;;;;;;3.60;1.80;;;10.30;83.90;;;;;;5069550;28;20200;-59
2022/03/28 04:48:03;;;;;;;2.00;1.50;;;10.20;84.10;;;;;;5061936;28;20254;-58
2022/03/28 04:50:31;;;;;;;4.23;1.63;;;10.20;84.40;;;;;;5073079;28;20277;-58
2022/03/28 04:52:58;;;;;;;1.60;1.30;;;10.20;84.70;;;;;;5072494;28;20681;-59
2022/03/28 04:55:25;;;;;;;1.40;1.20;;;10.20;84.80;;;;;;5071235;28;20197;-59
2022/03/28 04:57:52;;;;;;;4.33;1.60;;;10.20;85.00;;;;;;5072970;28;20203;-59
2022/03/28 05:00:19;;;;;;;5.53;2.30;;;10.20;85.30;;;;;;5063947;28;20198;-59
2022/03/28 05:02:47;;;;;;;2.90;1.70;;;10.20;85.40;;;;;;5069930;28;20585;-59
2022/03/28 05:05:15;;;;;;;5.47;2.43;;;10.20;85.50;;;;;;5073753;28;20192;-59
2022/03/28 05:07:42;;;;;;;4.50;2.17;;;10.20;85.70;;;;;;5072248;28;20684;-60
2022/03/28 05:10:10;;;;;;;3.87;2.07;;;10.20;86.20;;;;;;5073724;28;20203;-60
2022/03/28 05:12:37;;;;;;;5.03;2.40;;;10.20;86.30;;;;;;5071479;28;20194;-60
2022/03/28 05:15:05;;;;;;;4.47;2.33;;;10.20;86.50;;;;;;5071396;28;20264;-60
2022/03/28 05:17:33;;;;;;;5.37;2.00;;;10.10;86.40;;;;;;5069063;28;20568;-58
2022/03/28 05:20:01;;;;;;;9.53;2.93;;;10.20;86.30;;;;;;5070182;28;20911;-60
2022/03/28 05:22:30;;;;;;;3.57;2.37;;;10.20;86.30;;;;;;5071805;28;20233;-60
2022/03/28 05:24:58;;;;;;;4.80;2.13;;;10.20;86.30;;;;;;5071531;28;20684;-60
2022/03/28 05:27:25;;;;;;;3.67;2.23;;;10.20;86.30;;;;;;5072044;28;20689;-60
2022/03/28 05:29:53;;;;;;;3.90;1.90;;;10.20;86.20;;;;;;5068983;28;20201;-59
2022/03/28 05:32:20;;;;;;;4.17;1.97;;;10.20;86.10;;;;;;5068488;28;20200;-58
2022/03/28 05:34:47;;;;;;;3.93;2.10;;;10.30;85.90;;;;;;5067909;28;20256;-59
2022/03/28 05:37:17;;;;;;;6.27;2.20;;;10.30;85.80;;;;;;5065248;28;20201;-59
2022/03/28 05:39:48;;;;;;;3.10;1.97;;;10.40;85.60;;;;;;5063517;28;20212;-59
2022/03/28 05:42:16;;;;;;;2.57;1.80;;;10.40;85.30;;;;;;5066770;28;20554;-59
2022/03/28 05:44:43;;;;;;;4.90;2.63;;;10.40;84.90;;;;;;5072030;28;20197;-59
2022/03/28 05:47:11;;;;;;;3.30;1.90;;;10.50;84.80;;;;;;5070518;28;20347;-59
2022/03/28 05:49:38;;;;;;;4.93;1.97;;;10.50;84.50;;;;;;5061085;28;20202;-60
2022/03/28 05:52:06;;;;;;;3.50;2.27;;;10.60;84.10;;;;;;5066937;28;20192;-58
2022/03/28 05:54:34;;;;;;;3.90;2.20;;;10.60;83.90;;;;;;5062737;28;20549;-59
2022/03/28 05:57:02;;;;;;;3.00;1.60;;;10.60;83.60;;;;;;5069770;28;20191;-59
2022/03/28 05:59:30;;;;;;;2.20;1.40;;;10.70;83.20;;;;;;5070615;28;20188;-60
2022/03/28 06:01:57;;;;;;;2.53;1.50;;;10.70;82.80;;;;;;5071288;28;20810;-60
2022/03/28 06:04:24;;;;;;;3.03;2.10;;;10.80;82.40;;;;;;5069538;28;20191;-60
2022/03/28 06:06:51;;;;;;;4.20;2.00;;;10.80;81.80;;;;;;5070442;28;20213;-60
2022/03/28 06:09:19;;;;;;;6.23;2.20;;;10.90;81.30;;;;;;5069843;28;20196;-59
2022/03/28 06:11:46;;;;;;;4.87;2.10;;;10.90;80.70;;;;;;5066651;28;20773;-60
2022/03/28 06:14:14;;;;;;;3.60;2.13;;;11.00;80.30;;;;;;5066516;28;20669;-59
2022/03/28 06:16:41;;;;;;;2.20;1.60;;;11.00;79.80;;;;;;5064216;28;20190;-59
2022/03/28 06:19:08;;;;;;;5.03;2.40;;;11.10;79.50;;;;;;5065390;28;20258;-60
2022/03/28 06:21:35;;;;;;;4.90;2.37;;;11.10;79.20;;;;;;5069533;28;20200;-59
2022/03/28 06:24:03;;;;;;;2.63;2.17;;;11.20;78.90;;;;;;5070885;28;20278;-59
2022/03/28 06:26:30;;;;;;;3.53;1.83;;;11.20;78.40;;;;;;5071194;28;20189;-58
2022/03/28 06:28:57;;;;;;;1.70;1.60;;;11.30;78.00;;;;;;5070594;28;20204;-61
2022/03/28 06:31:26;;;;;;;3.77;1.67;;;11.40;77.70;;;;;;5063016;28;20198;-60
2022/03/28 06:34:01;;;;;;;3.00;1.90;;;11.50;77.30;;;;;;5060579;28;20200;-59
2022/03/28 06:36:29;;;;;;;4.63;2.10;;;11.50;77.00;;;;;;5062309;28;20205;-58
2022/03/28 06:38:56;;;;;;;4.00;2.30;;;11.60;76.80;;;;;;5061926;28;20197;-59
2022/03/28 06:41:23;;;;;;;3.53;2.00;;;11.60;76.50;;;;;;5056378;28;20205;-60
2022/03/28 06:43:50;;;;;;;4.07;2.40;;;11.60;76.30;;;;;;5061231;28;20204;-59
2022/03/28 06:46:17;;;;;;;2.70;2.03;;;11.70;76.10;;;;;;5066304;28;20211;-59
2022/03/28 06:48:46;;;;;;;2.20;2.00;;;11.70;75.90;;;;;;5065774;28;20580;-60
2022/03/28 06:51:13;;;;;;;2.70;2.03;;;11.70;75.70;;;;;;5068957;28;20229;-59
2022/03/28 06:53:40;;;;;;;2.23;1.83;;;11.80;75.60;;;;;;5067750;28;20209;-59
2022/03/28 06:56:07;;;;;;;3.43;1.97;;;11.80;75.30;;;;;;5068763;28;20203;-60
2022/03/28 06:58:34;;;;;;;3.83;2.13;;;11.90;75.10;;;;;;5069225;28;20658;-59
2022/03/28 07:01:02;;;;;;;2.97;2.00;;;11.90;74.80;;;;;;5059217;28;20222;-59
2022/03/28 07:03:30;;;;;;;4.47;2.20;;;12.00;74.50;;;;;;5069647;28;20255;-59
2022/03/28 07:05:59;;;;;;;6.50;2.40;;;12.10;73.90;;;;;;5067450;28;20203;-60
2022/03/28 07:08:26;;;;;;;4.13;2.23;;;12.10;73.20;;;;;;5068200;28;20564;-59
2022/03/28 07:10:54;;;;;;;2.70;2.13;;;12.10;72.60;;;;;;5069106;28;20243;-59
2022/03/28 07:13:22;;;;;;;2.90;1.77;;;12.10;72.50;;;;;;5070318;28;20379;-59
2022/03/28 07:15:49;;;;;;;5.07;2.10;;;12.20;72.50;;;;;;5069766;28;20197;-59
2022/03/28 07:18:16;;;;;;;2.17;1.97;;;12.20;72.00;;;;;;5069443;28;20208;-58
2022/03/28 07:20:44;;;;;;;4.70;2.40;;;12.30;71.80;;;;;;5066949;28;20531;-59
2022/03/28 07:23:13;;;;;;;5.47;2.20;;;12.30;71.40;;;;;;5066836;28;20221;-59
2022/03/28 07:25:41;;;;;;;4.97;2.10;;;12.40;71.30;;;;;;5066856;28;20196;-59
2022/03/28 07:28:09;;;;;;;3.57;2.53;;;12.50;71.10;;;;;;5070163;28;20203;-59
2022/03/28 07:30:38;;;;;;;3.37;2.10;;;12.60;70.80;;;;;;5070196;28;20735;-58
2022/03/28 07:33:06;;;;;;;6.47;2.70;;;12.70;70.30;;;;;;5062168;28;20643;-59
2022/03/28 07:35:35;;;;;;;2.37;2.10;;;12.70;69.20;;;;;;5066420;28;20302;-59
2022/03/28 07:38:02;;;;;;;6.47;2.23;;;12.80;69.00;;;;;;5064486;28;20284;-59
2022/03/28 07:40:31;;;;;;;4.23;2.50;;;12.80;68.70;;;;;;5070525;28;20236;-58
2022/03/28 07:42:58;;;;;;;2.87;1.60;;;12.80;68.40;;;;;;5069802;28;20199;-60
2022/03/28 07:45:26;;;;;;;1.93;1.80;;;12.90;68.20;;;;;;5069527;28;20200;-59
2022/03/28 07:47:53;;;;;;;4.10;2.20;;;13.00;67.70;;;;;;5068578;28;20706;-59
2022/03/28 07:50:20;;;;;;;3.37;1.90;;;13.10;67.10;;;;;;5064077;28;20200;-59
2022/03/28 07:52:50;;;;;;;2.13;1.90;;;13.20;66.90;;;;;;5062791;28;20672;-58
2022/03/28 07:55:18;;;;;;;6.40;2.10;;;13.30;66.70;;;;;;5069918;28;20204;-59
2022/03/28 07:57:46;;;;;;;5.80;2.60;;;13.30;66.30;;;;;;5068575;28;20192;-60
2022/03/28 08:00:16;;;;;;;2.27;2.00;;;13.40;65.90;;;;;;5070272;28;20189;-60
2022/03/28 08:02:44;;;;;;;2.90;1.90;;;13.40;66.30;;;;;;5067827;28;20200;-59
2022/03/28 08:05:12;;;;;;;1.80;1.57;;;13.50;65.40;;;;;;5069375;28;20639;-59
2022/03/28 08:07:40;;;;;;;9.80;2.07;;;13.60;65.50;;;;;;5068777;28;20614;-60
2022/03/28 08:10:09;;;;;;;3.63;1.77;;;13.90;65.20;;;;;;5068761;28;20231;-60
2022/03/28 08:12:38;;;;;;;5.63;1.90;;;14.60;64.20;;;;;;5067282;28;20198;-60
2022/03/28 08:15:09;;;;;;;2.90;1.63;;;15.50;62.00;;;;;;5059896;28;20233;-60
2022/03/28 08:17:36;;;;;;;4.63;1.93;;;16.10;59.70;;;;;;5061197;28;20293;-60
2022/03/28 08:20:06;;;;;;;3.70;1.80;;;16.70;58.10;;;;;;5069146;28;20213;-59
2022/03/28 08:22:33;;;;;;;2.70;1.70;;;17.00;56.90;;;;;;5068626;28;20705;-60
2022/03/28 08:25:00;;;;;;;3.37;1.60;;;17.20;55.70;;;;;;5069217;28;20207;-60
2022/03/28 08:27:27;;;;;;;3.57;1.30;;;17.50;55.30;;;;;;5069535;28;20223;-59
2022/03/28 08:29:54;;;;;;;1.60;1.50;;;17.90;54.80;;;;;;5069194;28;20303;-59
2022/03/28 08:32:23;;;;;;;2.77;1.50;;;18.20;54.10;;;;;;5069241;28;20201;-59
2022/03/28 08:34:50;;;;;;;1.83;1.13;;;18.50;53.10;;;;;;5058269;28;20235;-60
2022/03/28 08:37:18;;;;;;;1.20;1.10;;;18.80;52.40;;;;;;5058617;28;20266;-59
2022/03/28 08:39:45;;;;;;;5.27;1.93;;;19.30;51.90;;;;;;5065348;28;20672;-60
2022/03/28 08:42:13;;;;;;;2.30;1.50;;;19.50;50.20;;;;;;5066362;28;20192;-60
2022/03/28 08:44:40;;;;;;;4.37;1.50;;;19.60;50.00;;;;;;5061075;28;20656;-60
2022/03/28 08:47:09;;;;;;;2.17;1.67;;;19.70;49.60;;;;;;5069606;28;20705;-60
2022/03/28 08:49:37;;;;;;;2.60;1.40;;;19.70;48.90;;;;;;5059786;28;20207;-59
2022/03/28 08:52:06;;;;;;;2.80;1.60;;;19.60;48.90;;;;;;5068905;28;20251;-59
2022/03/28 08:54:33;;;;;;;1.90;1.73;;;19.70;48.90;;;;;;5067367;28;20205;-59
2022/03/28 08:57:00;;;;;;;1.10;1.03;;;20.00;48.70;;;;;;5067851;28;20205;-61
2022/03/28 08:59:28;;;;;;;3.10;1.53;;;20.30;48.20;;;;;;5066295;28;20255;-59
2022/03/28 09:01:55;;;;;;;2.50;1.47;;;20.50;48.00;;;;;;5060988;28;20189;-60
2022/03/28 09:04:22;;;;;;;1.83;1.60;;;20.90;47.60;;;;;;5067397;28;20201;-60
2022/03/28 09:06:51;;;;;;;3.17;1.93;;;20.90;47.00;;;;;;5068868;28;20554;-60
2022/03/28 09:09:21;;;;;;;2.20;1.30;;;20.80;46.70;;;;;;5067017;28;20240;-60
2022/03/28 09:11:51;;;;;;;3.67;1.43;;;20.70;46.50;;;;;;5069433;28;20657;-60
2022/03/28 09:14:28;;;;;;;4.30;1.30;;;20.60;46.80;;;;;;5064668;28;20229;-60
2022/03/28 09:17:04;;;;;;;1.37;1.27;;;20.60;46.60;;;;;;5066043;28;20240;-60
2022/03/28 09:19:49;;;;;;;3.53;1.70;;;20.50;46.30;;;;;;5059433;28;20199;-60
2022/03/28 09:22:19;;;;;;;1.33;1.23;;;20.30;46.10;;;;;;5065853;28;20200;-60
2022/03/28 09:24:47;;;;;;;5.83;1.47;;;20.40;46.40;;;;;;5068707;28;20189;-60
2022/03/28 09:27:17;;;;;;;2.73;1.80;;;20.40;46.30;;;;;;5068824;28;20203;-61
2022/03/28 09:29:58;;;;;;;5.10;2.07;;;20.40;45.90;;;;;;5067114;28;20276;-60
2022/03/28 09:32:27;;;;;;;3.80;1.50;;;20.40;45.80;;;;;;5067829;28;20189;-59
2022/03/28 09:35:09;;;;;;;1.43;1.10;;;20.30;45.60;;;;;;5062812;28;20627;-60
2022/03/28 09:38:06;;;;;;;1.93;1.30;;;20.30;45.50;;;;;;5066710;28;20201;-61
2022/03/28 09:40:36;;;;;;;2.87;1.57;;;20.40;45.50;;;;;;5043791;28;20300;-60
2022/03/28 09:43:06;;;;;;;1.50;1.30;;;20.40;45.40;;;;;;5060819;28;20199;-60
2022/03/28 09:45:37;;;;;;;3.43;1.40;;;20.50;45.50;;;;;;5093182;28;20447;-60
2022/03/28 09:48:06;;;;;;;3.50;1.42;;;20.90;45.40;;;;;;5064335;28;20569;-60
2022/03/28 09:50:37;;;;;;;5.18;1.48;;;21.00;45.00;;;;;;5065325;28;20295;-59
2022/03/28 09:53:17;;;;;;;6.40;1.42;;;20.90;44.80;;;;;;5065483;28;20672;-60
2022/03/28 09:55:54;;;;;;;4.43;1.58;;;20.90;45.00;;;;;;5071156;28;20221;-59
2022/03/28 09:58:46;;;;;;;1.70;1.40;;;20.90;44.60;;;;;;5071772;28;20647;-60
2022/03/28 10:01:16;;;;;;;2.07;1.30;;;20.80;44.50;;;;;;5071671;28;20565;-59
2022/03/28 10:03:45;;;;;;;2.13;1.10;;;20.80;44.50;;;;;;5055868;28;20209;-59
2022/03/28 10:06:12;;;;;;;2.50;1.30;;;20.90;44.50;;;;;;5070571;28;20193;-59
2022/03/28 10:08:41;;;;;;;3.67;1.30;;;20.90;44.50;;;;;;5070218;28;20298;-59
2022/03/28 10:11:10;;;;;;;1.20;1.10;;;20.90;44.30;;;;;;5067259;28;20294;-59
2022/03/28 10:13:38;;;;;;;1.92;1.15;;;20.90;44.40;;;;;;5071189;28;20240;-59
2022/03/28 10:16:07;;;;;;;2.40;1.20;;;21.00;44.40;;;;;;5070249;28;20189;-60
2022/03/28 10:18:36;;;;;;;3.50;1.20;;;21.10;44.40;;;;;;5061748;28;20719;-60
2022/03/28 10:21:07;;;;;;;1.67;1.20;;;21.40;44.40;;;;;;5067671;28;20205;-59
2022/03/28 10:23:43;;;;;;;2.97;1.40;;;21.50;43.70;;;;;;5071312;28;20203;-60
2022/03/28 10:26:11;;;;;;;2.90;1.60;;;21.70;44.00;;;;;;5071320;28;20587;-60
2022/03/28 10:28:40;;;;;;;3.15;1.70;;;21.80;43.90;;;;;;5071447;28;20212;-60
2022/03/28 10:31:17;;;;;;;1.67;1.20;;;21.80;43.50;;;;;;5071492;28;20572;-60
2022/03/28 10:33:54;;;;;;;5.22;1.45;;;21.70;43.60;;;;;;5061622;28;20277;-59
2022/03/28 10:36:27;;;;;;;5.75;1.70;;;21.70;43.40;;;;;;5070860;28;20242;-59
2022/03/28 10:39:17;;;;;;;1.70;1.30;;;21.70;43.30;;;;;;5070591;28;20188;-60
2022/03/28 10:41:44;;;;;;;4.22;2.00;;;21.50;43.30;;;;;;5065615;28;20256;-59
2022/03/28 10:44:12;;;;;;;1.42;1.30;;;21.30;43.20;;;;;;5063723;28;20633;-59
2022/03/28 10:46:39;;;;;;;3.00;1.50;;;21.00;43.50;;;;;;5067361;28;20209;-59
2022/03/28 10:49:07;;;;;;;3.83;1.27;;;20.80;43.50;;;;;;5056574;28;20197;-60
2022/03/28 10:51:34;;;;;;;8.88;1.90;;;20.70;43.60;;;;;;5077136;28;20210;-59
2022/03/28 10:54:05;;;;;;;3.13;1.48;;;20.70;43.70;;;;;;5062819;28;20201;-59
2022/03/28 10:56:34;;;;;;;2.63;1.63;;;20.80;43.60;;;;;;5070808;28;20192;-59
2022/03/28 10:59:06;;;;;;;1.80;1.50;;;20.80;43.60;;;;;;5070037;28;20197;-60
2022/03/28 11:01:34;;;;;;;3.33;1.35;;;20.80;43.70;;;;;;5059752;28;20203;-60
2022/03/28 11:04:05;;;;;;;2.47;1.10;;;20.70;43.70;;;;;;5068067;28;20205;-59
2022/03/28 11:06:59;;;;;;;2.97;1.50;;;20.70;43.70;;;;;;5070550;28;21005;-59
2022/03/28 11:09:50;;;;;;;2.00;1.00;;;20.60;43.60;;;;;;5067838;28;20683;-60
2022/03/28 11:12:22;;;;;;;2.72;1.00;;;20.60;43.50;;;;;;5068479;28;20201;-60
2022/03/28 11:14:59;;;;;;;0.95;0.95;;;20.60;43.50;;;;;;5067258;28;20248;-59
2022/03/28 11:17:28;;;;;;;1.35;1.25;;;20.60;43.40;;;;;;5061161;28;20199;-59
2022/03/28 11:20:01;;;;;;;1.20;1.10;;;20.70;43.40;;;;;;5070066;28;20556;-60
2022/03/28 11:22:48;;;;;;;5.93;1.35;;;20.80;43.20;;;;;;5070560;28;20194;-59
2022/03/28 11:25:42;;;;;;;1.40;1.30;;;20.80;43.00;;;;;;5070432;28;20201;-59
2022/03/28 11:28:25;;;;;;;1.65;1.40;;;20.80;43.00;;;;;;5060447;28;20554;-60
2022/03/28 11:30:59;;;;;;;1.95;1.52;;;20.70;42.80;;;;;;5068040;28;20220;-60
2022/03/28 11:33:38;;;;;;;1.52;1.42;;;20.60;42.70;;;;;;5059555;28;20207;-59
2022/03/28 11:36:07;;;;;;;2.92;1.50;;;20.50;42.80;;;;;;5057087;28;20216;-58
2022/03/28 11:38:37;;;;;;;1.73;1.27;;;20.40;42.70;;;;;;5064627;28;20809;-60
2022/03/28 11:41:07;;;;;;;1.98;1.55;;;20.40;42.70;;;;;;5069699;28;20211;-60
2022/03/28 11:43:37;;;;;;;3.38;1.65;;;20.40;42.70;;;;;;5070298;28;20730;-60
2022/03/28 11:46:12;;;;;;;2.92;1.80;;;20.30;42.70;;;;;;5069513;28;20675;-60
2022/03/28 11:48:51;;;;;;;2.17;1.40;;;20.30;42.80;;;;;;5068686;28;20560;-61
2022/03/28 11:51:19;;;;;;;1.27;1.20;;;20.20;42.80;;;;;;5062178;28;20216;-61
2022/03/28 11:53:47;;;;;;;2.08;1.60;;;20.20;42.80;;;;;;5060366;28;20197;-60
2022/03/28 11:56:25;;;;;;;2.25;1.73;;;20.30;42.90;;;;;;5069578;28;20292;-60
2022/03/28 11:58:51;;;;;;;2.20;1.55;;;20.30;43.70;;;;;;5067418;28;20296;-60
2022/03/28 12:01:18;;;;;;;1.65;1.45;;;20.40;42.90;;;;;;5056317;28;20193;-61
2022/03/28 12:03:50;;;;;;;2.90;1.45;;;20.60;42.80;;;;;;5067489;28;20656;-61
2022/03/28 12:06:28;;;;;;;1.70;1.50;;;20.80;42.30;;;;;;5069809;28;20257;-60
2022/03/28 12:08:56;;;;;;;1.52;1.42;;;20.70;42.20;;;;;;5068836;28;20255;-61
2022/03/28 12:11:25;;;;;;;2.33;1.40;;;20.80;42.30;;;;;;5065940;28;20198;-60
2022/03/28 12:13:53;;;;;;;1.48;1.38;;;20.70;42.20;;;;;;5068868;28;20748;-60
2022/03/28 12:16:21;;;;;;;2.83;2.00;;;20.80;42.30;;;;;;5067215;28;20546;-61
2022/03/28 12:18:51;;;;;;;4.43;2.30;;;20.70;42.00;;;;;;5066582;28;20200;-61
2022/03/28 12:21:19;;;;;;;2.28;2.03;;;20.60;41.70;;;;;;5069255;28;20201;-60
2022/03/28 12:23:47;;;;;;;3.42;1.58;;;20.40;41.70;;;;;;5059804;28;20205;-59
2022/03/28 12:26:14;;;;;;;2.70;2.03;;;20.30;41.90;;;;;;5069588;28;20221;-60
2022/03/28 12:28:45;;;;;;;3.15;2.40;;;20.10;41.70;;;;;;5069304;28;20224;-59
2022/03/28 12:31:13;;;;;;;4.30;1.90;;;19.90;41.90;;;;;;5069235;28;20204;-60
2022/03/28 12:33:41;;;;;;;2.10;1.95;;;19.80;42.00;;;;;;5062829;28;20189;-60
2022/03/28 12:36:10;;;;;;;3.67;2.22;;;19.80;42.10;;;;;;5068498;28;20233;-60
2022/03/28 12:38:40;;;;;;;2.58;1.90;;;19.70;42.10;;;;;;5063014;28;20732;-60
2022/03/28 12:41:11;;;;;;;3.25;2.10;;;19.60;42.40;;;;;;5069249;28;20615;-60
2022/03/28 12:43:39;;;;;;;3.00;2.30;;;19.50;42.40;;;;;;5069625;28;20694;-60
2022/03/28 12:46:10;;;;;;;3.80;2.22;;;19.40;42.40;;;;;;5068835;28;20529;-60
2022/03/28 12:48:39;;;;;;;2.28;2.08;;;19.30;42.40;;;;;;5068009;28;20748;-61
2022/03/28 12:51:07;;;;;;;4.45;1.95;;;19.10;42.50;;;;;;5064129;28;20564;-61
2022/03/28 12:53:36;;;;;;;3.53;2.20;;;19.10;42.70;;;;;;5068944;28;20212;-61
2022/03/28 12:56:18;;;;;;;3.60;1.90;;;19.70;42.60;;;;;;5068984;28;20197;-61
2022/03/28 12:58:53;;;;;;;2.10;1.90;;;21.40;41.30;;;;;;5067181;28;20205;-60